Time;durP1;ratioP1;P1;durP2;ratioP2;P2;SDS_P1;SDS_P2;PMS_P1;PMS_P2;Temp;Humidity;BMP_temperature;BMP_pressure;BME280_temperature;BME280_humidity;BME280_pressure;Samples;Min_cycle;Max_cycle;Signal;HPM_P1;HPM_P2
2023/08/27 00:00:56;;;;;;;2.58;1.40;;;14.30;99.90;;;;;;4883610;28;90134;-93
2023/08/27 00:03:22;;;;;;;1.98;1.50;;;14.20;99.90;;;;;;4915831;28;87255;-93
2023/08/27 00:05:47;;;;;;;2.85;1.88;;;14.20;99.90;;;;;;4914863;28;89172;-94
2023/08/27 00:08:13;;;;;;;7.28;2.50;;;14.10;99.90;;;;;;4915653;28;89618;-93
2023/08/27 00:10:39;;;;;;;2.72;2.45;;;14.10;99.90;;;;;;4917409;28;89084;-93
2023/08/27 00:13:05;;;;;;;4.25;2.28;;;14.10;99.90;;;;;;4899044;28;87501;-94
2023/08/27 00:15:30;;;;;;;5.30;2.70;;;14.10;99.90;;;;;;4898870;28;88103;-94
2023/08/27 00:17:56;;;;;;;3.92;3.20;;;14.00;99.90;;;;;;4900496;28;89645;-93
2023/08/27 00:20:22;;;;;;;8.70;3.35;;;14.00;99.90;;;;;;4915004;28;90661;-93
2023/08/27 00:22:47;;;;;;;4.90;4.03;;;14.00;99.90;;;;;;4914975;28;88767;-93
2023/08/27 00:25:14;;;;;;;5.15;3.45;;;13.90;99.90;;;;;;4915917;28;88253;-92
2023/08/27 00:27:40;;;;;;;8.82;4.28;;;13.90;99.90;;;;;;4916316;28;89651;-95
2023/08/27 00:30:10;;;;;;;3.58;3.13;;;13.90;99.90;;;;;;4915051;28;90616;-93
2023/08/27 00:32:36;;;;;;;3.95;2.67;;;13.90;99.90;;;;;;4917282;28;87702;-92
2023/08/27 00:37:46;;;;;;;5.22;2.60;;;13.90;99.90;;;;;;4919707;28;87858;-93
2023/08/27 00:43:18;;;;;;;5.97;2.95;;;13.90;99.90;;;;;;4922172;28;87509;-92
2023/08/27 00:45:45;;;;;;;6.30;2.60;;;13.90;99.90;;;;;;4918955;28;89234;-93
2023/08/27 00:48:10;;;;;;;4.30;2.70;;;13.80;99.90;;;;;;4895063;28;90137;-93
2023/08/27 01:57:11;;;;;;;3.63;2.22;;;14.20;99.90;;;;;;5609220;23;89554;-92
2023/08/27 01:59:37;;;;;;;4.28;2.15;;;14.20;99.90;;;;;;4886269;28;87658;-92
2023/08/27 02:02:02;;;;;;;4.15;2.60;;;14.30;99.90;;;;;;4882221;28;89170;-92
2023/08/27 02:04:28;;;;;;;3.38;2.33;;;14.30;99.90;;;;;;4893465;28;90669;-93
2023/08/27 02:06:54;;;;;;;4.53;2.38;;;14.30;99.90;;;;;;4882961;28;88904;-93
2023/08/27 02:09:19;;;;;;;3.72;2.13;;;14.30;99.90;;;;;;4866001;28;88862;-94
2023/08/27 02:11:45;;;;;;;4.13;2.13;;;14.40;99.90;;;;;;4865991;28;88941;-92
2023/08/27 02:14:11;;;;;;;5.28;1.95;;;14.30;99.90;;;;;;4883403;28;89644;-93
2023/08/27 02:16:38;;;;;;;4.70;2.45;;;14.40;99.90;;;;;;4886399;28;89147;-93
2023/08/27 02:19:04;;;;;;;2.83;1.90;;;14.40;99.90;;;;;;4893662;28;87140;-94
2023/08/27 02:21:29;;;;;;;4.10;1.95;;;14.40;99.90;;;;;;4885768;28;88683;-93
2023/08/27 02:23:55;;;;;;;3.63;2.47;;;14.40;99.90;;;;;;4882975;28;94481;-93
2023/08/27 02:26:21;;;;;;;3.50;2.35;;;14.40;99.90;;;;;;4896751;28;90226;-93
2023/08/27 02:28:47;;;;;;;3.63;2.35;;;14.40;99.90;;;;;;4889016;28;87841;-95
2023/08/27 02:31:13;;;;;;;4.07;2.50;;;14.40;99.90;;;;;;4886319;28;89007;-94
2023/08/27 02:33:39;;;;;;;2.90;2.25;;;14.40;99.90;;;;;;4888217;28;90362;-94
2023/08/27 02:36:05;;;;;;;4.22;2.42;;;14.40;99.90;;;;;;4885242;28;93809;-92
2023/08/27 02:38:33;;;;;;;5.03;2.35;;;14.40;99.90;;;;;;4887922;28;87823;-93
2023/08/27 02:41:02;;;;;;;5.07;2.58;;;14.40;99.90;;;;;;4894578;28;88426;-93
2023/08/27 02:43:28;;;;;;;2.58;2.00;;;14.30;99.90;;;;;;4887232;28;89269;-93
2023/08/27 02:45:54;;;;;;;3.10;2.10;;;14.40;99.90;;;;;;4889989;28;88827;-93
2023/08/27 02:48:20;;;;;;;3.83;2.35;;;14.30;99.90;;;;;;4887767;28;87120;-93
2023/08/27 02:50:45;;;;;;;5.22;2.30;;;14.40;99.90;;;;;;4885740;28;89356;-93
2023/08/27 02:53:11;;;;;;;4.57;2.15;;;14.40;99.90;;;;;;4884543;28;90059;-94
2023/08/27 02:55:37;;;;;;;4.10;2.50;;;14.40;99.90;;;;;;4887811;28;88359;-94
2023/08/27 02:58:03;;;;;;;4.20;2.70;;;14.40;99.90;;;;;;4890150;28;88732;-93
2023/08/27 03:00:29;;;;;;;6.15;2.72;;;14.40;99.90;;;;;;4905471;28;88903;-92
2023/08/27 04:36:20;;;;;;;6.65;3.60;;;14.50;99.90;;;;;;5460003;23;87736;-93
2023/08/27 05:09:59;;;;;;;7.93;3.40;;;14.50;99.90;;;;;;5540159;23;89538;-93
2023/08/27 05:12:25;;;;;;;4.90;2.70;;;14.50;99.90;;;;;;4909129;28;88122;-94
2023/08/27 05:14:51;;;;;;;5.68;2.95;;;14.40;99.90;;;;;;4898444;28;89042;-94
2023/08/27 05:17:16;;;;;;;4.35;2.83;;;14.50;99.90;;;;;;4902532;28;91023;-95
2023/08/27 05:19:42;;;;;;;3.90;2.65;;;14.40;99.90;;;;;;4897982;28;89171;-94
2023/08/27 05:22:08;;;;;;;3.78;2.83;;;14.40;99.90;;;;;;4903669;28;88191;-94
2023/08/27 05:24:34;;;;;;;4.07;3.22;;;14.40;99.90;;;;;;4899459;28;88166;-94
2023/08/27 05:27:00;;;;;;;5.72;2.63;;;14.40;99.90;;;;;;4898953;28;90827;-95
2023/08/27 05:29:26;;;;;;;5.55;3.33;;;14.40;99.90;;;;;;4899209;28;88912;-94
2023/08/27 05:31:52;;;;;;;5.68;3.28;;;14.40;99.90;;;;;;4899556;28;88580;-94
2023/08/27 05:34:18;;;;;;;7.00;2.85;;;14.40;99.90;;;;;;4899338;28;87504;-94
2023/08/27 05:36:44;;;;;;;5.82;3.33;;;14.50;99.90;;;;;;4899269;28;89928;-94
2023/08/27 05:39:10;;;;;;;5.72;3.33;;;14.50;99.90;;;;;;4897827;28;89924;-93
2023/08/27 05:41:36;;;;;;;7.68;3.53;;;14.50;99.90;;;;;;4898808;28;88415;-94
2023/08/27 05:44:02;;;;;;;5.50;3.28;;;14.50;99.90;;;;;;4914768;28;88733;-94
2023/08/27 05:46:31;;;;;;;5.75;3.05;;;14.50;99.90;;;;;;4897846;28;89037;-95
2023/08/27 05:48:56;;;;;;;8.82;3.17;;;14.60;99.90;;;;;;4900426;28;88322;-94
2023/08/27 05:51:22;;;;;;;7.45;3.50;;;14.60;99.90;;;;;;4882781;28;87809;-93
2023/08/27 05:53:47;;;;;;;6.25;3.42;;;14.60;99.90;;;;;;4897782;28;88679;-93
2023/08/27 05:56:17;;;;;;;7.95;3.40;;;14.70;99.90;;;;;;4895803;28;89018;-92
2023/08/27 05:58:43;;;;;;;5.88;3.90;;;14.70;99.90;;;;;;4900189;28;88742;-95
2023/08/27 06:01:09;;;;;;;10.40;3.45;;;14.70;99.90;;;;;;4899219;28;87611;-94
2023/08/27 06:03:34;;;;;;;6.65;3.75;;;14.80;99.90;;;;;;4898261;28;89284;-95
2023/08/27 06:06:00;;;;;;;8.82;3.58;;;14.80;99.90;;;;;;4905194;28;90314;-94
2023/08/27 06:08:26;;;;;;;7.35;3.38;;;14.80;99.90;;;;;;4897018;28;90217;-95
2023/08/27 06:10:51;;;;;;;8.68;3.80;;;14.80;99.90;;;;;;4909925;28;87622;-95
2023/08/27 06:13:38;;;;;;;8.82;3.28;;;14.90;99.90;;;;;;4898380;28;88147;-93
2023/08/27 06:16:04;;;;;;;6.75;3.17;;;14.90;99.90;;;;;;4879845;28;90180;-95
2023/08/27 06:18:29;;;;;;;5.88;3.50;;;15.00;99.90;;;;;;4910386;28;90112;-95
2023/08/27 06:20:55;;;;;;;5.47;2.95;;;15.00;99.90;;;;;;4897377;28;88682;-94
2023/08/27 06:23:21;;;;;;;4.35;3.22;;;15.10;99.90;;;;;;4897981;28;88257;-94
2023/08/27 06:25:47;;;;;;;5.00;3.13;;;15.10;99.90;;;;;;4902508;28;90113;-94
2023/08/27 06:28:15;;;;;;;8.85;3.50;;;15.20;99.90;;;;;;4898102;28;88947;-94
2023/08/27 06:30:41;;;;;;;7.20;3.40;;;15.20;99.90;;;;;;4915485;28;88179;-95
2023/08/27 06:33:09;;;;;;;5.88;3.35;;;15.30;99.90;;;;;;4897128;28;88080;-95
2023/08/27 06:35:39;;;;;;;6.95;3.25;;;15.30;99.90;;;;;;4897046;28;89574;-93
2023/08/27 06:38:06;;;;;;;6.78;3.35;;;15.40;99.90;;;;;;4886955;28;88794;-95
2023/08/27 06:40:31;;;;;;;9.38;3.65;;;15.50;99.90;;;;;;4899101;28;87623;-93
2023/08/27 06:42:57;;;;;;;10.57;4.05;;;15.50;99.90;;;;;;4897051;28;88951;-94
2023/08/27 06:45:42;;;;;;;7.38;3.25;;;15.50;99.90;;;;;;4910126;28;90383;-94
2023/08/27 06:48:09;;;;;;;7.45;3.22;;;15.60;99.90;;;;;;4896592;28;91192;-94
2023/08/27 06:50:35;;;;;;;6.45;3.22;;;15.70;99.90;;;;;;4902778;28;87526;-94
2023/08/27 06:53:02;;;;;;;9.13;3.40;;;15.70;99.90;;;;;;4899078;28;87484;-95
2023/08/27 06:55:28;;;;;;;5.63;2.65;;;15.70;99.90;;;;;;4900046;28;90646;-94
2023/08/27 06:58:06;;;;;;;6.00;2.72;;;15.70;99.90;;;;;;4902473;28;90117;-92
2023/08/27 07:00:32;;;;;;;7.65;2.05;;;15.80;99.90;;;;;;4897865;28;88050;-94
2023/08/27 07:02:57;;;;;;;5.75;2.50;;;15.80;99.90;;;;;;4897431;28;88953;-93
2023/08/27 07:05:23;;;;;;;5.88;2.25;;;15.90;99.90;;;;;;4894906;28;89541;-94
2023/08/27 07:07:49;;;;;;;6.82;2.63;;;15.90;99.90;;;;;;4897867;28;89227;-93
2023/08/27 07:10:15;;;;;;;7.47;2.72;;;15.90;99.90;;;;;;4897357;28;88600;-94
2023/08/27 07:12:40;;;;;;;4.78;2.45;;;15.90;99.90;;;;;;4897245;28;89466;-92
2023/08/27 07:15:07;;;;;;;5.63;2.30;;;15.90;99.90;;;;;;4895859;28;89042;-95
2023/08/27 07:17:33;;;;;;;5.70;2.60;;;15.90;99.90;;;;;;4897809;28;89818;-96
2023/08/27 07:19:59;;;;;;;10.13;2.70;;;15.80;99.90;;;;;;4897366;28;87770;-94
2023/08/27 07:22:25;;;;;;;4.85;2.38;;;15.70;99.90;;;;;;4913859;28;88029;-96
2023/08/27 07:24:51;;;;;;;8.25;2.70;;;15.70;99.90;;;;;;4896472;28;89667;-94
2023/08/27 07:27:17;;;;;;;4.22;2.15;;;15.70;99.90;;;;;;4901189;28;88964;-93
2023/08/27 07:29:44;;;;;;;9.80;2.60;;;15.70;99.90;;;;;;4885483;28;87576;-94
2023/08/27 07:32:10;;;;;;;7.18;2.28;;;15.70;99.90;;;;;;4907270;28;88962;-95
2023/08/27 07:34:35;;;;;;;6.97;2.33;;;15.70;99.90;;;;;;4919321;28;88871;-91
2023/08/27 07:37:01;;;;;;;6.00;2.75;;;15.70;99.90;;;;;;4905636;28;91552;-96
2023/08/27 07:39:27;;;;;;;5.70;2.72;;;15.70;99.90;;;;;;4894863;28;87676;-95
2023/08/27 07:41:54;;;;;;;4.70;2.42;;;15.80;99.90;;;;;;4895631;28;87666;-93
2023/08/27 07:44:19;;;;;;;9.77;2.80;;;15.80;99.90;;;;;;4896842;28;90225;-93
2023/08/27 07:46:45;;;;;;;6.75;2.70;;;15.80;99.90;;;;;;4894709;28;89041;-94
2023/08/27 07:49:11;;;;;;;6.57;2.50;;;15.90;99.90;;;;;;4892325;28;87371;-94
2023/08/27 07:51:36;;;;;;;6.55;2.05;;;16.00;99.90;;;;;;4894834;28;89456;-94
2023/08/27 07:54:02;;;;;;;6.07;2.40;;;16.00;99.90;;;;;;4893976;28;91203;-94
2023/08/27 07:56:29;;;;;;;9.18;2.47;;;16.10;99.90;;;;;;4894101;28;90724;-95
2023/08/27 07:58:54;;;;;;;8.73;2.42;;;16.20;99.90;;;;;;4900196;28;88912;-95
2023/08/27 08:01:20;;;;;;;5.10;2.28;;;16.20;99.90;;;;;;4900968;28;89462;-94
2023/08/27 08:03:46;;;;;;;6.18;1.83;;;16.30;99.90;;;;;;4904023;28;90193;-96
2023/08/27 08:06:13;;;;;;;4.60;1.75;;;16.30;99.90;;;;;;4900440;28;88520;-94
2023/08/27 08:08:38;;;;;;;7.63;2.05;;;16.40;99.90;;;;;;4887544;28;87831;-92
2023/08/27 08:11:08;;;;;;;5.40;2.22;;;16.50;99.90;;;;;;4901761;28;89209;-94
2023/08/27 08:13:35;;;;;;;8.13;1.90;;;16.60;99.90;;;;;;4893356;28;90105;-94
2023/08/27 08:16:02;;;;;;;5.15;1.83;;;16.70;99.80;;;;;;4904540;28;90111;-94
2023/08/27 08:18:28;;;;;;;5.50;1.63;;;16.80;99.90;;;;;;4895828;28;87834;-92
2023/08/27 08:20:58;;;;;;;4.32;1.70;;;16.90;99.90;;;;;;4897386;28;88113;-93
2023/08/27 08:23:25;;;;;;;5.18;1.98;;;17.00;99.90;;;;;;4900433;28;90000;-91
2023/08/27 08:25:51;;;;;;;8.60;1.80;;;17.10;99.70;;;;;;4898086;28;90382;-94
2023/08/27 08:28:17;;;;;;;4.28;1.40;;;17.30;99.00;;;;;;4900063;28;88456;-95
2023/08/27 08:30:48;;;;;;;6.07;1.52;;;17.30;98.40;;;;;;4900418;28;89347;-94
2023/08/27 08:33:15;;;;;;;5.75;1.02;;;17.50;98.00;;;;;;4894291;28;88739;-95
2023/08/27 08:35:42;;;;;;;6.38;1.48;;;17.60;98.00;;;;;;4901923;28;90071;-94
2023/08/27 08:38:08;;;;;;;5.35;1.23;;;17.60;95.70;;;;;;4919658;28;87756;-94
2023/08/27 08:40:59;;;;;;;4.13;0.80;;;17.70;96.70;;;;;;4895964;28;89539;-93
2023/08/27 08:43:24;;;;;;;2.95;0.90;;;17.80;96.70;;;;;;4902754;28;90623;-93
2023/08/27 08:46:05;;;;;;;5.97;1.23;;;18.00;95.60;;;;;;4907128;28;88749;-93
2023/08/27 08:48:42;;;;;;;7.38;1.75;;;18.00;95.80;;;;;;4900463;28;88381;-92
2023/08/27 08:51:12;;;;;;;3.50;0.90;;;18.10;95.80;;;;;;4900740;28;89148;-95
2023/08/27 08:53:44;;;;;;;4.53;0.60;;;18.20;95.30;;;;;;4901797;28;90109;-96
2023/08/27 08:56:16;;;;;;;2.47;0.80;;;18.30;95.80;;;;;;4920857;28;90360;-94
2023/08/27 08:58:51;;;;;;;3.72;0.70;;;18.20;94.00;;;;;;4879802;28;87697;-93
2023/08/27 09:01:23;;;;;;;4.25;0.73;;;18.20;93.70;;;;;;4903819;28;88294;-93
2023/08/27 09:03:50;;;;;;;2.70;0.70;;;18.30;93.70;;;;;;4916832;28;88298;-94
2023/08/27 09:06:19;;;;;;;2.53;0.98;;;18.30;92.80;;;;;;4903559;28;89792;-95
2023/08/27 09:08:46;;;;;;;5.20;0.98;;;18.30;93.10;;;;;;4906916;28;87772;-93
2023/08/27 09:11:13;;;;;;;4.43;0.85;;;18.40;93.40;;;;;;4900785;28;89365;-95
2023/08/27 09:13:41;;;;;;;3.50;0.60;;;18.50;94.00;;;;;;4899904;28;90384;-95
2023/08/27 09:16:07;;;;;;;5.57;0.80;;;18.60;94.00;;;;;;4902830;28;90925;-92
2023/08/27 09:18:36;;;;;;;3.28;0.50;;;18.70;93.40;;;;;;4904177;28;87638;-96
2023/08/27 09:21:02;;;;;;;2.40;0.80;;;18.80;92.60;;;;;;4888801;28;87495;-95
2023/08/27 09:23:32;;;;;;;1.95;0.43;;;18.90;93.50;;;;;;4917438;28;87780;-95
2023/08/27 09:26:04;;;;;;;7.45;0.85;;;19.00;93.00;;;;;;4900981;28;89176;-95
2023/08/27 09:28:31;;;;;;;2.75;0.90;;;19.20;91.80;;;;;;4901209;28;88102;-95
2023/08/27 09:30:58;;;;;;;2.88;0.77;;;19.20;92.10;;;;;;4919535;28;88159;-95
2023/08/27 09:33:41;;;;;;;4.72;0.93;;;19.30;91.60;;;;;;4902271;28;90257;-93
2023/08/27 09:36:08;;;;;;;4.93;1.00;;;19.40;91.10;;;;;;4907107;28;90338;-94
2023/08/27 09:38:34;;;;;;;4.07;0.90;;;19.50;90.20;;;;;;4898281;28;88917;-93
2023/08/27 09:41:13;;;;;;;7.90;1.52;;;19.60;90.70;;;;;;4902451;28;87811;-92
2023/08/27 09:43:39;;;;;;;4.97;1.08;;;19.70;90.90;;;;;;4907626;28;89740;-94
2023/08/27 09:46:10;;;;;;;2.45;0.85;;;19.80;91.60;;;;;;4901129;28;90830;-92
2023/08/27 09:48:36;;;;;;;5.53;1.00;;;19.90;89.10;;;;;;4919623;28;87645;-94
2023/08/27 09:51:04;;;;;;;4.15;1.20;;;20.00;88.30;;;;;;4898600;28;87527;-93
2023/08/27 09:53:30;;;;;;;5.95;0.93;;;20.10;89.50;;;;;;4895773;28;88818;-94
2023/08/27 09:55:56;;;;;;;4.55;1.05;;;20.20;86.10;;;;;;4915957;28;87554;-94
2023/08/27 09:58:26;;;;;;;3.30;0.88;;;20.30;90.20;;;;;;4898125;28;87950;-93
2023/08/27 10:00:58;;;;;;;3.50;1.20;;;20.40;88.20;;;;;;4914808;28;87382;-93
2023/08/27 10:03:23;;;;;;;3.92;1.30;;;20.60;88.30;;;;;;4895197;28;89611;-93
2023/08/27 10:05:50;;;;;;;5.05;0.90;;;20.70;87.70;;;;;;4900486;28;91291;-93
2023/08/27 10:08:16;;;;;;;3.40;0.93;;;20.70;86.00;;;;;;4901329;28;87507;-93
2023/08/27 10:10:41;;;;;;;4.53;0.95;;;20.80;85.40;;;;;;4896077;28;88199;-93
2023/08/27 10:13:10;;;;;;;4.05;1.15;;;20.90;82.90;;;;;;4899197;28;88003;-93
2023/08/27 10:15:36;;;;;;;4.22;0.80;;;20.90;82.80;;;;;;4913572;28;93494;-93
2023/08/27 10:18:04;;;;;;;3.35;0.82;;;21.00;85.40;;;;;;4913247;28;87628;-93
2023/08/27 10:20:31;;;;;;;3.28;0.88;;;21.10;83.30;;;;;;4896726;28;93373;-93
2023/08/27 10:22:57;;;;;;;7.18;0.98;;;21.30;81.80;;;;;;4896621;28;90517;-93
2023/08/27 10:25:24;;;;;;;7.53;1.27;;;21.20;79.90;;;;;;4897147;28;88826;-93
2023/08/27 10:27:51;;;;;;;2.50;0.88;;;21.30;79.90;;;;;;4912830;28;88473;-93
2023/08/27 10:30:18;;;;;;;5.25;0.80;;;21.40;77.70;;;;;;4897427;28;88238;-93
2023/08/27 10:32:45;;;;;;;7.95;1.52;;;21.40;80.10;;;;;;4895175;28;89056;-93
2023/08/27 10:35:11;;;;;;;3.38;0.80;;;21.50;80.80;;;;;;4912377;28;89476;-93
2023/08/27 10:37:47;;;;;;;2.42;0.98;;;21.50;80.50;;;;;;4896540;28;88484;-93
2023/08/27 10:40:15;;;;;;;2.10;0.60;;;21.40;80.30;;;;;;4911790;28;87304;-95
2023/08/27 10:42:41;;;;;;;4.47;0.52;;;21.50;77.80;;;;;;4895036;28;89093;-94
2023/08/27 10:45:16;;;;;;;4.30;0.68;;;21.50;78.10;;;;;;4897150;28;88893;-94
2023/08/27 10:48:03;;;;;;;3.78;0.50;;;21.50;75.80;;;;;;4895916;28;87229;-95
2023/08/27 10:50:44;;;;;;;3.42;0.63;;;21.40;76.40;;;;;;4895932;28;88021;-93
2023/08/27 10:53:10;;;;;;;3.38;0.47;;;21.50;78.40;;;;;;4895701;28;95289;-92
2023/08/27 10:55:36;;;;;;;4.07;0.68;;;21.70;77.20;;;;;;4896318;28;89976;-93
2023/08/27 10:58:20;;;;;;;2.25;0.47;;;21.70;77.20;;;;;;4914711;28;87633;-93
2023/08/27 11:01:06;;;;;;;5.97;0.68;;;21.70;74.80;;;;;;4910501;28;93806;-96
2023/08/27 11:04:04;;;;;;;3.08;0.70;;;21.70;76.00;;;;;;4895682;28;91103;-93
2023/08/27 11:06:43;;;;;;;3.15;0.60;;;21.50;75.20;;;;;;4895511;28;90109;-92
2023/08/27 11:09:27;;;;;;;3.00;0.50;;;21.20;76.70;;;;;;4896937;28;87555;-91
2023/08/27 11:12:02;;;;;;;4.78;0.85;;;21.00;78.10;;;;;;4911714;28;88292;-89
2023/08/27 11:14:28;;;;;;;4.78;1.23;;;20.80;78.50;;;;;;4910863;28;88667;-91
2023/08/27 11:17:05;;;;;;;4.60;1.00;;;20.60;78.80;;;;;;4910112;28;89117;-91
2023/08/27 11:19:37;;;;;;;2.45;0.50;;;20.60;83.30;;;;;;4894961;28;89136;-90
2023/08/27 11:22:17;;;;;;;5.03;0.53;;;20.40;83.40;;;;;;4898524;28;89148;-89
2023/08/27 11:24:48;;;;;;;2.70;0.30;;;20.40;84.50;;;;;;4893753;28;93628;-85
2023/08/27 11:27:18;;;;;;;3.60;0.50;;;20.40;81.10;;;;;;4885638;28;89076;-92
2023/08/27 11:29:46;;;;;;;3.17;0.50;;;20.50;84.20;;;;;;4893470;28;87591;-85
2023/08/27 11:32:13;;;;;;;2.00;0.50;;;20.60;86.20;;;;;;4914347;28;87770;-91
2023/08/27 11:34:40;;;;;;;2.72;0.55;;;20.80;82.70;;;;;;4897469;28;90402;-90
2023/08/27 11:37:07;;;;;;;4.75;0.68;;;20.90;83.60;;;;;;4916407;28;86960;-90
2023/08/27 11:39:37;;;;;;;5.60;1.27;;;21.10;82.10;;;;;;4900266;28;88494;-91
2023/08/27 11:42:12;;;;;;;3.33;1.20;;;21.30;78.90;;;;;;4898726;28;89509;-91
2023/08/27 11:44:49;;;;;;;3.58;0.63;;;21.30;78.80;;;;;;4912812;28;91850;-93
2023/08/27 11:47:15;;;;;;;4.00;1.02;;;21.40;81.50;;;;;;4897665;28;90970;-90
2023/08/27 11:49:44;;;;;;;3.38;0.85;;;21.50;78.80;;;;;;4906428;28;87518;-91
2023/08/27 11:52:12;;;;;;;3.55;1.00;;;21.70;77.80;;;;;;4908292;28;88963;-91
2023/08/27 11:54:39;;;;;;;2.08;0.60;;;21.80;76.00;;;;;;4902164;28;94868;-90
2023/08/27 11:57:06;;;;;;;2.85;0.70;;;21.90;74.40;;;;;;4918314;28;88568;-90
2023/08/27 11:59:32;;;;;;;2.00;0.43;;;22.00;76.00;;;;;;4901252;28;87845;-89
2023/08/27 12:02:02;;;;;;;3.38;0.70;;;22.20;77.70;;;;;;4899759;28;90119;-92
2023/08/27 12:04:29;;;;;;;1.35;0.50;;;22.30;75.40;;;;;;4884934;28;90009;-90
2023/08/27 12:06:59;;;;;;;2.35;0.90;;;22.50;73.30;;;;;;4902414;28;90037;-90
2023/08/27 12:09:27;;;;;;;2.90;0.80;;;22.50;71.10;;;;;;4898119;28;88797;-92
2023/08/27 12:11:54;;;;;;;4.38;1.10;;;22.50;71.40;;;;;;4897985;28;88976;-89
2023/08/27 12:14:26;;;;;;;2.33;0.57;;;22.70;68.30;;;;;;4905723;28;90446;-88
2023/08/27 12:16:53;;;;;;;6.80;1.03;;;22.80;71.80;;;;;;4902352;28;89156;-92
2023/08/27 12:19:23;;;;;;;3.72;0.70;;;23.00;66.40;;;;;;4924922;28;87594;-88
2023/08/27 12:21:58;;;;;;;3.25;0.95;;;23.10;69.50;;;;;;4904585;28;88879;-90
2023/08/27 12:24:30;;;;;;;2.75;1.05;;;23.00;67.90;;;;;;4901339;28;89233;-88
2023/08/27 12:27:01;;;;;;;3.75;0.93;;;23.00;69.60;;;;;;4899526;28;89169;-90
2023/08/27 12:29:29;;;;;;;3.08;0.90;;;23.00;67.70;;;;;;4904650;28;87699;-91
2023/08/27 12:31:55;;;;;;;2.45;0.95;;;22.90;66.70;;;;;;4897335;28;89497;-92
2023/08/27 12:34:33;;;;;;;4.30;1.17;;;22.80;67.50;;;;;;4897378;28;91469;-90
2023/08/27 12:36:59;;;;;;;4.88;0.93;;;22.50;67.50;;;;;;4897977;28;91548;-90
2023/08/27 12:39:25;;;;;;;3.08;0.77;;;22.40;68.40;;;;;;4923804;28;87680;-91
2023/08/27 12:41:51;;;;;;;3.05;0.82;;;22.20;67.20;;;;;;4902837;28;88090;-89
2023/08/27 12:44:17;;;;;;;2.65;0.88;;;22.20;70.20;;;;;;4901732;28;90636;-91
2023/08/27 12:46:42;;;;;;;2.30;0.60;;;22.10;69.60;;;;;;4901553;28;89920;-88
2023/08/27 12:49:08;;;;;;;1.80;0.52;;;22.10;69.20;;;;;;4904664;28;87510;-90
2023/08/27 12:51:35;;;;;;;3.72;0.77;;;22.10;68.20;;;;;;4900952;28;87616;-88
2023/08/27 12:54:00;;;;;;;1.30;0.50;;;22.20;71.10;;;;;;4902237;28;89263;-87
2023/08/27 12:56:26;;;;;;;3.45;0.60;;;22.20;70.30;;;;;;4897656;28;90064;-89
2023/08/27 12:58:52;;;;;;;1.48;0.52;;;22.40;70.20;;;;;;4900162;28;89100;-88
2023/08/27 13:01:17;;;;;;;1.88;0.63;;;22.60;70.40;;;;;;4900479;28;88208;-89
2023/08/27 13:03:47;;;;;;;3.92;0.45;;;22.80;68.50;;;;;;4900540;28;89025;-88
2023/08/27 13:06:13;;;;;;;3.08;0.50;;;22.90;68.50;;;;;;4900252;28;90198;-89
2023/08/27 13:08:38;;;;;;;2.60;0.68;;;23.10;66.60;;;;;;4899753;28;87736;-87
2023/08/27 13:11:05;;;;;;;1.00;0.40;;;23.10;66.60;;;;;;4904105;28;87762;-93
2023/08/27 13:13:31;;;;;;;2.55;0.38;;;22.80;68.40;;;;;;4902268;28;89391;-87
2023/08/27 13:16:04;;;;;;;7.40;0.73;;;22.40;69.40;;;;;;4898380;28;89389;-88
2023/08/27 13:18:30;;;;;;;0.40;0.30;;;21.80;70.60;;;;;;4900452;28;87503;-90
2023/08/27 13:20:57;;;;;;;0.70;0.32;;;21.30;73.60;;;;;;4900358;28;89219;-93
2023/08/27 13:23:25;;;;;;;1.85;0.40;;;21.20;75.00;;;;;;4903596;28;91865;-88
2023/08/27 13:25:50;;;;;;;0.77;0.30;;;20.80;77.20;;;;;;4899211;28;90947;-91
2023/08/27 13:28:16;;;;;;;0.70;0.40;;;20.40;76.50;;;;;;4901186;28;88792;-92
2023/08/27 13:30:42;;;;;;;2.08;0.30;;;20.20;76.70;;;;;;4902981;28;88666;-89
2023/08/27 13:33:07;;;;;;;1.38;0.30;;;20.10;77.50;;;;;;4895982;28;90424;-88
2023/08/27 13:35:33;;;;;;;0.93;0.30;;;20.20;79.60;;;;;;4897488;28;90329;-91
2023/08/27 13:38:01;;;;;;;0.82;0.20;;;20.20;79.20;;;;;;4896521;28;88297;-90
2023/08/27 13:40:27;;;;;;;0.93;0.20;;;20.20;77.30;;;;;;4897893;28;87950;-91
2023/08/27 13:42:53;;;;;;;0.95;0.20;;;20.20;75.70;;;;;;4896930;28;89416;-87
2023/08/27 13:45:21;;;;;;;0.55;0.10;;;20.10;76.40;;;;;;4894897;28;87872;-89
2023/08/27 13:47:47;;;;;;;0.73;0.20;;;20.00;76.90;;;;;;4914537;28;88987;-90
2023/08/27 13:50:13;;;;;;;2.25;0.17;;;20.00;76.70;;;;;;4897034;28;89054;-89
2023/08/27 13:52:39;;;;;;;1.65;0.30;;;19.80;77.50;;;;;;4897244;28;89294;-88
2023/08/27 13:55:05;;;;;;;0.60;0.28;;;19.70;79.00;;;;;;4896059;28;90083;-93
2023/08/27 13:57:31;;;;;;;1.25;0.25;;;19.60;81.10;;;;;;4898526;28;87823;-88
2023/08/27 13:59:57;;;;;;;0.25;0.20;;;19.50;82.40;;;;;;4894480;28;88296;-87
2023/08/27 14:02:22;;;;;;;0.60;0.20;;;19.50;82.40;;;;;;4913258;28;90198;-88
2023/08/27 14:04:48;;;;;;;1.67;0.20;;;19.60;82.90;;;;;;4897629;28;89377;-88
2023/08/27 14:07:14;;;;;;;0.43;0.30;;;19.80;83.70;;;;;;4896679;28;88269;-91
2023/08/27 14:09:39;;;;;;;0.20;0.20;;;20.10;81.80;;;;;;4895615;28;88003;-86
2023/08/27 14:12:05;;;;;;;0.20;0.20;;;20.40;79.60;;;;;;4893351;28;90347;-89
2023/08/27 14:14:31;;;;;;;1.13;0.43;;;20.60;78.80;;;;;;4911726;28;89819;-88
2023/08/27 14:16:57;;;;;;;0.52;0.35;;;20.80;78.00;;;;;;4899350;28;87258;-89
2023/08/27 14:19:22;;;;;;;1.55;0.30;;;20.80;77.70;;;;;;4916568;28;87878;-89
2023/08/27 14:21:49;;;;;;;0.85;0.30;;;20.90;78.90;;;;;;4905540;28;90510;-90
2023/08/27 14:24:15;;;;;;;1.77;0.30;;;21.20;79.90;;;;;;4902628;28;87377;-89
2023/08/27 14:26:41;;;;;;;2.15;0.30;;;21.40;76.90;;;;;;4902937;28;87615;-89
2023/08/27 14:29:09;;;;;;;0.65;0.30;;;21.70;79.60;;;;;;4916563;28;87841;-90
2023/08/27 14:31:36;;;;;;;0.35;0.30;;;22.20;76.10;;;;;;4899819;28;89855;-90
2023/08/27 14:34:06;;;;;;;0.35;0.20;;;22.80;73.80;;;;;;4900017;28;89226;-91
2023/08/27 14:36:32;;;;;;;1.05;0.20;;;23.30;72.90;;;;;;4897842;28;88974;-93
2023/08/27 14:38:58;;;;;;;1.25;0.50;;;24.00;74.20;;;;;;4904378;28;87492;-92
2023/08/27 14:41:27;;;;;;;0.50;0.30;;;24.60;67.70;;;;;;4890568;28;89556;-86
2023/08/27 14:43:53;;;;;;;0.70;0.20;;;25.20;66.60;;;;;;4902184;28;89715;-91
2023/08/27 14:46:19;;;;;;;0.50;0.30;;;25.70;66.10;;;;;;4897165;28;87668;-89
2023/08/27 14:48:45;;;;;;;1.15;0.50;;;26.10;63.00;;;;;;4893842;28;88948;-87
2023/08/27 14:51:11;;;;;;;1.10;0.25;;;26.20;64.00;;;;;;4894552;28;91094;-90
2023/08/27 14:53:37;;;;;;;0.63;0.30;;;26.30;62.70;;;;;;4907980;28;87413;-88
2023/08/27 14:56:05;;;;;;;0.65;0.30;;;26.50;60.30;;;;;;4909254;28;87504;-90
2023/08/27 14:58:31;;;;;;;2.42;0.70;;;26.70;58.80;;;;;;4893939;28;88957;-86
2023/08/27 15:00:56;;;;;;;1.38;0.15;;;26.70;58.50;;;;;;4911679;28;90640;-92
2023/08/27 15:03:22;;;;;;;1.17;0.43;;;26.60;59.00;;;;;;4893618;28;91116;-87
2023/08/27 15:05:48;;;;;;;0.77;0.30;;;26.40;59.10;;;;;;4898506;28;87891;-87
2023/08/27 15:08:13;;;;;;;0.85;0.30;;;26.10;57.60;;;;;;4893324;28;89284;-87
2023/08/27 15:10:39;;;;;;;1.20;0.40;;;25.70;58.80;;;;;;4896083;28;89716;-87
2023/08/27 15:13:07;;;;;;;0.73;0.30;;;25.40;58.70;;;;;;4901419;28;89732;-87
2023/08/27 15:15:33;;;;;;;1.02;0.30;;;25.30;58.70;;;;;;4897747;28;87846;-89
2023/08/27 15:17:59;;;;;;;1.45;0.50;;;25.20;57.20;;;;;;4909552;28;90075;-90
2023/08/27 15:20:25;;;;;;;1.05;0.28;;;25.20;58.10;;;;;;4894790;28;90164;-87
2023/08/27 15:22:51;;;;;;;2.10;0.20;;;25.30;57.30;;;;;;4893044;28;88474;-88
2023/08/27 15:25:17;;;;;;;0.93;0.30;;;25.10;58.80;;;;;;4908672;28;89268;-93
2023/08/27 15:27:43;;;;;;;0.90;0.43;;;25.00;59.30;;;;;;4909811;28;88228;-90
2023/08/27 15:30:09;;;;;;;0.30;0.30;;;24.90;60.80;;;;;;4898113;28;88835;-86
2023/08/27 15:32:35;;;;;;;0.30;0.30;;;25.00;59.70;;;;;;4914114;28;89659;-90
2023/08/27 15:35:01;;;;;;;0.93;0.20;;;25.10;59.60;;;;;;4896011;28;87924;-87
2023/08/27 15:37:27;;;;;;;0.30;0.30;;;25.20;61.00;;;;;;4910473;28;88023;-87
2023/08/27 15:39:53;;;;;;;1.15;0.30;;;25.70;62.90;;;;;;4895633;28;89088;-87
2023/08/27 15:42:30;;;;;;;1.13;0.40;;;26.30;59.20;;;;;;4896744;28;87522;-87
2023/08/27 15:44:56;;;;;;;7.38;0.65;;;26.90;59.70;;;;;;4908101;28;87605;-89
2023/08/27 15:47:22;;;;;;;2.20;0.25;;;27.30;55.50;;;;;;4897842;28;88406;-86
2023/08/27 15:49:47;;;;;;;0.98;0.45;;;27.60;54.90;;;;;;4890407;28;89886;-87
2023/08/27 15:52:13;;;;;;;1.05;0.30;;;27.80;53.90;;;;;;4893058;28;90767;-85
2023/08/27 15:54:39;;;;;;;0.82;0.30;;;28.00;54.80;;;;;;4893251;28;88523;-85
2023/08/27 15:57:05;;;;;;;0.88;0.38;;;28.10;52.70;;;;;;4893085;28;88940;-88
2023/08/27 15:59:31;;;;;;;0.52;0.40;;;28.20;52.50;;;;;;4893111;28;90307;-87
2023/08/27 16:01:58;;;;;;;0.50;0.30;;;28.10;51.60;;;;;;4894092;28;88921;-88
2023/08/27 16:04:23;;;;;;;0.82;0.38;;;27.80;54.20;;;;;;4895158;28;87779;-86